Time;durP1;ratioP1;P1;durP2;ratioP2;P2;SDS_P1;SDS_P2;PMS_P1;PMS_P2;Temp;Humidity;BMP_temperature;BMP_pressure;BME280_temperature;BME280_humidity;BME280_pressure;Samples;Min_cycle;Max_cycle;Signal;HPM_P1;HPM_P2
2022/04/18 00:02:10;;;;;;;9.43;4.90;;;;;;;5.82;100.00;101933.63;7360323;19;20390;-44
2022/04/18 00:04:40;;;;;;;11.80;4.40;;;;;;;5.79;100.00;101929.16;7395535;19;20951;-45
2022/04/18 00:07:10;;;;;;;8.53;4.60;;;;;;;5.76;100.00;101926.38;7358541;19;20771;-46
2022/04/18 00:09:39;;;;;;;9.90;5.60;;;;;;;5.67;100.00;101925.63;7394179;19;20407;-45
2022/04/18 00:12:12;;;;;;;8.83;4.87;;;;;;;5.70;100.00;101920.75;7365309;19;20375;-44
2022/04/18 00:14:41;;;;;;;11.17;5.60;;;;;;;5.68;100.00;101920.63;7395547;19;20735;-46
2022/04/18 00:17:11;;;;;;;12.07;6.07;;;;;;;5.69;100.00;101918.94;7357213;19;21277;-45
2022/04/18 00:19:41;;;;;;;11.03;6.73;;;;;;;5.73;100.00;101915.88;7393737;19;20791;-45
2022/04/18 00:22:11;;;;;;;12.20;6.47;;;;;;;5.64;100.00;101923.69;7374626;19;20416;-44
2022/04/18 00:24:40;;;;;;;8.53;5.00;;;;;;;5.62;100.00;101919.22;7394962;19;20389;-46
2022/04/18 00:27:12;;;;;;;10.20;5.40;;;;;;;5.56;100.00;101919.63;7387227;19;20436;-47
2022/04/18 00:29:42;;;;;;;8.90;4.60;;;;;;;5.46;100.00;101923.13;7395672;19;20495;-47
2022/04/18 00:32:12;;;;;;;9.40;5.50;;;;;;;5.48;100.00;101921.56;7390213;19;20421;-48
2022/04/18 00:34:41;;;;;;;10.27;5.00;;;;;;;5.38;100.00;101913.91;7394767;19;20428;-45
2022/04/18 00:37:15;;;;;;;9.07;4.70;;;;;;;5.34;100.00;101911.88;7389202;19;20421;-46
2022/04/18 00:39:45;;;;;;;8.50;4.80;;;;;;;5.45;100.00;101915.31;7393353;19;20401;-48
2022/04/18 00:42:17;;;;;;;9.40;5.50;;;;;;;5.48;100.00;101911.31;7388733;19;20420;-48
2022/04/18 00:44:46;;;;;;;10.63;4.77;;;;;;;5.57;100.00;101916.31;7393230;19;20391;-45
2022/04/18 00:47:16;;;;;;;12.47;5.30;;;;;;;5.40;100.00;101907.25;7386551;19;20415;-44
2022/04/18 00:49:45;;;;;;;10.50;5.33;;;;;;;5.26;100.00;101901.91;7392658;19;20418;-46
2022/04/18 00:52:15;;;;;;;8.37;4.80;;;;;;;5.33;100.00;101904.97;7388328;19;20935;-45
2022/04/18 00:54:44;;;;;;;8.87;4.60;;;;;;;5.33;100.00;101904.97;7394211;19;20387;-48
2022/04/18 00:57:16;;;;;;;7.67;4.67;;;;;;;5.24;100.00;101900.88;7387359;19;20405;-46
2022/04/18 00:59:46;;;;;;;9.53;5.10;;;;;;;5.21;100.00;101897.16;7391334;19;20421;-44
2022/04/18 01:02:17;;;;;;;9.77;4.70;;;;;;;5.21;100.00;101895.53;7383031;19;20405;-49
2022/04/18 01:04:48;;;;;;;7.77;4.50;;;;;;;5.18;100.00;101891.81;7387812;19;20365;-49
2022/04/18 01:07:18;;;;;;;10.80;4.60;;;;;;;5.22;100.00;101881.94;7379098;19;20462;-46
2022/04/18 01:09:47;;;;;;;9.70;5.23;;;;;;;5.18;100.00;101885.03;7384027;19;21159;-46
2022/04/18 01:12:19;;;;;;;10.60;5.20;;;;;;;5.18;100.00;101877.34;7375660;19;20409;-50
2022/04/18 01:14:50;;;;;;;9.23;5.13;;;;;;;5.11;100.00;101877.63;7386724;19;20376;-46
2022/04/18 01:17:19;;;;;;;9.33;4.80;;;;;;;4.97;100.00;101877.38;7380440;19;20410;-46
2022/04/18 01:19:49;;;;;;;11.83;5.67;;;;;;;5.01;100.00;101873.41;7386180;19;20494;-45
2022/04/18 01:22:22;;;;;;;9.90;4.90;;;;;;;4.99;100.00;101870.72;7381748;19;21060;-49
2022/04/18 01:30:16;;;;;;;8.10;4.70;;;;;;;5.02;100.00;101856.41;7388765;19;20432;-46
2022/04/18 01:32:46;;;;;;;11.00;5.10;;;;;;;5.00;100.00;101852.06;7389401;19;20407;-46
2022/04/18 01:35:15;;;;;;;9.60;5.53;;;;;;;5.01;100.00;101845.28;7384526;19;20396;-46
2022/04/18 01:37:47;;;;;;;8.90;4.70;;;;;;;4.98;100.00;101845.91;7389764;19;20427;-45
2022/04/18 01:40:17;;;;;;;11.00;5.47;;;;;;;5.00;100.00;101849.50;7391255;19;20422;-46
2022/04/18 01:42:46;;;;;;;98.30;46.37;;;;;;;4.98;100.00;101838.25;7390836;19;20436;-49
2022/04/18 01:45:16;;;;;;;69.00;33.40;;;;;;;4.94;100.00;101828.53;7392989;19;20407;-49
2022/04/18 01:47:45;;;;;;;36.03;18.80;;;;;;;4.85;100.00;101822.66;7391744;19;20417;-45
2022/04/18 01:50:15;;;;;;;22.30;10.40;;;;;;;4.79;100.00;101823.06;7391220;19;20429;-49
2022/04/18 01:52:44;;;;;;;9.63;5.60;;;;;;;4.69;100.00;101826.53;7391290;19;20409;-47
2022/04/18 01:55:16;;;;;;;12.97;6.10;;;;;;;4.75;100.00;101815.00;7391807;19;20363;-47
2022/04/18 01:57:46;;;;;;;12.37;5.57;;;;;;;4.86;100.00;101814.22;7390995;19;20404;-47
2022/04/18 02:00:16;;;;;;;10.93;5.83;;;;;;;4.80;100.00;101813.72;7394350;19;20399;-48
2022/04/18 02:02:45;;;;;;;11.93;5.67;;;;;;;4.80;100.00;101813.72;7390366;19;20423;-49
2022/04/18 02:05:14;;;;;;;11.07;5.80;;;;;;;4.73;100.00;101810.66;7392229;19;20794;-45
2022/04/18 02:07:44;;;;;;;10.83;5.87;;;;;;;4.68;100.00;101814.47;7386438;19;20401;-51
2022/04/18 02:10:13;;;;;;;9.73;5.10;;;;;;;4.72;100.00;101805.44;7390855;19;20414;-46
2022/04/18 02:12:45;;;;;;;10.33;5.80;;;;;;;4.68;100.00;101798.25;7386148;19;20417;-48
2022/04/18 02:15:15;;;;;;;10.90;6.37;;;;;;;4.63;100.00;101795.34;7391406;19;20391;-46
2022/04/18 02:17:44;;;;;;;12.03;6.30;;;;;;;4.73;100.00;101787.63;7391057;19;20406;-49
2022/04/18 02:20:14;;;;;;;10.57;5.87;;;;;;;4.67;100.00;101784.56;7397127;19;20419;-44
2022/04/18 02:22:43;;;;;;;11.37;5.70;;;;;;;4.81;100.00;101778.03;7390945;19;20436;-48
2022/04/18 02:25:13;;;;;;;10.03;5.77;;;;;;;4.89;100.00;101777.78;7403602;19;20396;-45
2022/04/18 02:27:43;;;;;;;10.57;5.73;;;;;;;4.90;100.00;101759.09;7392909;19;20394;-44
2022/04/18 02:30:16;;;;;;;10.23;5.50;;;;;;;4.75;100.00;101758.72;7397090;19;20427;-45
2022/04/18 02:32:52;;;;;;;11.17;6.03;;;;;;;4.70;100.00;101761.84;7398306;19;20420;-47
2022/04/18 02:35:23;;;;;;;11.90;5.93;;;;;;;4.61;100.00;101766.19;7394461;19;20383;-46
2022/04/18 02:37:53;;;;;;;11.00;5.57;;;;;;;4.65;100.00;101760.56;7398056;19;20369;-46
2022/04/18 02:40:23;;;;;;;12.70;5.90;;;;;;;4.54;100.00;101757.13;7391884;19;20423;-46
2022/04/18 02:42:52;;;;;;;12.60;6.20;;;;;;;4.55;100.00;101751.25;7396463;19;20379;-47
2022/04/18 02:45:27;;;;;;;11.50;6.03;;;;;;;4.42;100.00;101759.53;7394004;19;20374;-46
2022/04/18 02:47:57;;;;;;;11.40;5.73;;;;;;;4.39;100.00;101753.28;7397868;19;20930;-44
2022/04/18 02:50:26;;;;;;;14.20;6.63;;;;;;;4.37;100.00;101750.63;7390038;19;20411;-47
2022/04/18 02:52:56;;;;;;;13.50;5.27;;;;;;;4.46;100.00;101738.59;7397367;19;20403;-47
2022/04/18 02:55:26;;;;;;;10.97;6.57;;;;;;;4.42;100.00;101744.22;7392807;19;20825;-47
2022/04/18 02:57:55;;;;;;;13.27;7.50;;;;;;;4.30;100.00;101744.09;7397486;19;20838;-45
2022/04/18 03:00:27;;;;;;;11.90;7.20;;;;;;;4.34;100.00;101735.03;7390395;19;20400;-50
2022/04/18 03:02:57;;;;;;;11.77;6.00;;;;;;;4.37;100.00;101732.75;7395724;19;20919;-44
2022/04/18 03:05:26;;;;;;;11.80;6.73;;;;;;;4.38;100.00;101721.75;7388347;19;20399;-50
2022/04/18 03:07:56;;;;;;;12.90;6.53;;;;;;;4.35;100.00;101726.59;7401626;19;20758;-46
2022/04/18 03:13:08;;;;;;;12.03;6.83;;;;;;;4.23;100.00;101707.69;7397249;19;20399;-44
2022/04/18 03:15:40;;;;;;;14.77;7.90;;;;;;;4.19;100.00;101701.44;7393086;19;20363;-44
2022/04/18 03:18:10;;;;;;;14.10;7.77;;;;;;;4.25;100.00;101701.06;7397212;19;20388;-46
2022/04/18 03:20:39;;;;;;;13.53;7.70;;;;;;;4.27;100.00;101704.63;7391277;19;20364;-49
2022/04/18 03:23:09;;;;;;;13.40;6.90;;;;;;;4.19;100.00;101699.78;7395877;19;20392;-46
2022/04/18 03:25:38;;;;;;;12.83;6.70;;;;;;;4.16;100.00;101694.41;7391248;19;20372;-46
2022/04/18 03:28:09;;;;;;;12.57;7.13;;;;;;;4.17;100.00;101691.06;7394755;19;20367;-48
2022/04/18 03:30:41;;;;;;;13.03;7.00;;;;;;;4.17;100.00;101693.63;7392003;19;20384;-49
2022/04/18 03:33:10;;;;;;;15.47;7.60;;;;;;;4.27;100.00;101691.84;7397719;19;20383;-47
2022/04/18 03:39:50;;;;;;;15.80;7.37;;;;;;;4.16;100.00;101691.84;7392229;19;20945;-51
2022/04/18 03:41:11;;;;;;;13.23;7.00;;;;;;;4.22;100.00;101688.94;7391491;19;20419;-45
2022/04/18 03:43:41;;;;;;;17.00;8.03;;;;;;;4.21;100.00;101684.59;7394268;19;20710;-48
2022/04/18 03:46:13;;;;;;;13.87;7.90;;;;;;;4.14;100.00;101685.72;7390540;19;20414;-50
2022/04/18 03:48:43;;;;;;;18.10;9.47;;;;;;;4.08;100.00;101682.66;7395423;19;20391;-45
2022/04/18 03:51:12;;;;;;;14.50;7.73;;;;;;;4.03;100.00;101683.94;7386982;19;20402;-44
2022/04/18 03:53:42;;;;;;;15.47;7.90;;;;;;;4.14;100.00;101674.59;7396652;19;20392;-43
2022/04/18 03:56:11;;;;;;;18.33;8.57;;;;;;;4.13;100.00;101673.72;7390817;19;20805;-44
2022/04/18 03:58:41;;;;;;;15.40;7.50;;;;;;;4.12;100.00;101671.94;7400005;19;20417;-48
2022/04/18 04:01:13;;;;;;;16.90;7.63;;;;;;;4.10;100.00;101667.47;7389215;19;20402;-44
2022/04/18 04:03:48;;;;;;;14.40;7.83;;;;;;;4.13;100.00;101663.50;7393821;19;20371;-46
2022/04/18 04:06:17;;;;;;;12.63;6.57;;;;;;;4.07;100.00;101663.00;7390209;19;20394;-44
2022/04/18 04:08:47;;;;;;;11.87;7.03;;;;;;;4.04;100.00;101655.06;7394680;19;20400;-45
2022/04/18 04:11:16;;;;;;;14.37;8.00;;;;;;;3.98;100.00;101658.03;7387906;19;20401;-49
2022/04/18 04:13:46;;;;;;;13.10;7.27;;;;;;;3.89;100.00;101652.16;7396365;19;20386;-44
2022/04/18 04:16:18;;;;;;;13.60;7.53;;;;;;;3.91;100.00;101638.75;7390754;19;20415;-43
2022/04/18 04:18:49;;;;;;;19.83;7.37;;;;;;;3.81;100.00;101638.75;7393910;19;20415;-45
2022/04/18 04:21:18;;;;;;;13.17;7.20;;;;;;;3.83;100.00;101637.22;7388973;19;20403;-44
2022/04/18 04:23:48;;;;;;;13.40;7.40;;;;;;;3.89;100.00;101632.63;7394075;19;20376;-49
2022/04/18 04:26:17;;;;;;;13.80;7.87;;;;;;;3.85;100.00;101622.03;7390705;19;20445;-46
2022/04/18 04:28:47;;;;;;;13.37;7.20;;;;;;;3.74;100.00;101623.72;7398194;19;20414;-46
2022/04/18 04:31:20;;;;;;;17.87;8.90;;;;;;;3.74;100.00;101621.16;7389528;19;20494;-44
2022/04/18 04:33:49;;;;;;;23.00;8.50;;;;;;;3.75;100.00;101608.50;7396862;19;20459;-47
2022/04/18 04:36:19;;;;;;;15.33;8.10;;;;;;;3.76;100.00;101611.94;7371957;19;20921;-47
2022/04/18 04:38:48;;;;;;;11.70;7.60;;;;;;;3.74;100.00;101616.03;7392973;19;20423;-48
2022/04/18 04:41:18;;;;;;;15.07;7.80;;;;;;;3.74;100.00;101611.81;7387780;19;20421;-44
2022/04/18 04:43:47;;;;;;;16.40;8.10;;;;;;;3.70;100.00;101608.88;7393685;19;20394;-46
2022/04/18 04:46:19;;;;;;;13.90;7.03;;;;;;;3.75;100.00;101608.50;7389822;19;20415;-46
2022/04/18 04:48:49;;;;;;;18.80;10.43;;;;;;;3.81;100.00;101612.31;7393422;19;20407;-44
2022/04/18 04:51:18;;;;;;;14.93;8.97;;;;;;;3.80;100.00;101611.44;7388010;19;20410;-49
2022/04/18 04:53:48;;;;;;;14.17;8.20;;;;;;;3.80;100.00;101614.00;7394082;19;20375;-46
2022/04/18 04:56:19;;;;;;;16.83;8.63;;;;;;;3.81;100.00;101612.31;7386735;19;20766;-45
2022/04/18 04:58:49;;;;;;;15.87;8.47;;;;;;;3.82;100.00;101599.69;7393163;19;20486;-46
2022/04/18 05:01:22;;;;;;;15.53;9.60;;;;;;;3.85;100.00;101605.03;7384801;19;20411;-44
2022/04/18 05:03:51;;;;;;;17.53;7.90;;;;;;;3.87;100.00;101600.97;7393000;19;20402;-48
2022/04/18 05:06:21;;;;;;;18.97;8.70;;;;;;;3.88;100.00;101599.28;7388407;19;20419;-46
2022/04/18 05:08:50;;;;;;;13.97;8.13;;;;;;;3.89;100.00;101601.06;7392578;19;20897;-46
2022/04/18 05:11:20;;;;;;;17.50;8.50;;;;;;;3.92;100.00;101602.25;7387730;19;20411;-45
2022/04/18 05:13:49;;;;;;;14.50;8.20;;;;;;;3.94;100.00;101609.13;7392875;19;20367;-43
2022/04/18 05:16:21;;;;;;;14.07;8.10;;;;;;;3.89;100.00;101604.53;7388710;19;20423;-44
2022/04/18 05:18:51;;;;;;;13.83;7.50;;;;;;;3.97;100.00;101604.28;7392669;19;20404;-46
2022/04/18 05:21:21;;;;;;;17.30;8.70;;;;;;;4.02;100.00;101609.00;7387176;19;20437;-45
2022/04/18 05:23:50;;;;;;;17.17;8.63;;;;;;;4.10;100.00;101611.28;7392569;19;20383;-44
2022/04/18 05:26:20;;;;;;;14.57;8.10;;;;;;;4.12;100.00;101610.66;7387362;19;20427;-44
2022/04/18 05:28:49;;;;;;;17.83;7.57;;;;;;;4.14;100.00;101608.19;7391526;19;20952;-45
2022/04/18 05:31:22;;;;;;;15.57;8.37;;;;;;;4.19;100.00;101602.72;7382641;19;20430;-43
2022/04/18 05:33:51;;;;;;;15.93;8.40;;;;;;;4.31;100.00;101609.59;7393144;19;20388;-45
2022/04/18 05:36:21;;;;;;;16.93;8.47;;;;;;;4.35;100.00;101603.94;7388025;19;20402;-44
2022/04/18 05:38:50;;;;;;;12.67;7.90;;;;;;;4.38;100.00;101604.19;7392116;19;20399;-43
2022/04/18 05:41:20;;;;;;;18.10;8.93;;;;;;;4.47;100.00;101604.03;7387987;19;20411;-44
2022/04/18 05:43:49;;;;;;;15.60;8.97;;;;;;;4.53;100.00;101611.31;7391925;19;20726;-44
2022/04/18 05:46:22;;;;;;;15.83;8.23;;;;;;;4.61;100.00;101615.34;7386602;19;20398;-47
2022/04/18 05:48:51;;;;;;;13.97;7.90;;;;;;;4.63;100.00;101613.84;7390045;19;20401;-47
2022/04/18 05:51:26;;;;;;;13.33;7.60;;;;;;;4.70;100.00;101613.53;7387697;19;20435;-45
2022/04/18 05:53:56;;;;;;;17.03;8.90;;;;;;;4.76;100.00;101612.25;7397992;19;20370;-44
2022/04/18 05:56:25;;;;;;;14.77;8.07;;;;;;;4.85;100.00;101615.50;7392422;19;20446;-46
2022/04/18 05:58:55;;;;;;;13.50;7.97;;;;;;;4.89;100.00;101616.66;7400762;19;20438;-48
2022/04/18 06:01:28;;;;;;;15.37;7.60;;;;;;;4.95;100.00;101612.00;7394706;19;20945;-47
2022/04/18 06:03:59;;;;;;;12.30;7.87;;;;;;;5.07;100.00;101619.78;7398746;19;20456;-44
2022/04/18 06:06:28;;;;;;;14.10;8.30;;;;;;;5.18;100.00;101624.03;7392989;19;20486;-45
2022/04/18 06:08:58;;;;;;;13.43;8.70;;;;;;;5.25;100.00;101634.00;7397128;19;20494;-48
2022/04/18 06:11:27;;;;;;;16.07;8.87;;;;;;;5.36;100.00;101631.34;7389743;19;20474;-47
2022/04/18 06:13:57;;;;;;;13.60;8.00;;;;;;;5.50;100.00;101638.41;7402500;19;20394;-51
2022/04/18 06:16:29;;;;;;;11.50;7.60;;;;;;;5.59;100.00;101643.34;7393381;19;20421;-47
2022/04/18 06:18:59;;;;;;;16.53;8.50;;;;;;;5.70;100.00;101636.50;7397978;19;20985;-46
2022/04/18 06:21:28;;;;;;;14.07;8.23;;;;;;;5.79;100.00;101651.66;7389607;19;20426;-47
2022/04/18 06:23:58;;;;;;;11.63;6.40;;;;;;;6.13;100.00;101643.06;7398054;19;20463;-47
2022/04/18 06:26:28;;;;;;;19.17;8.07;;;;;;;6.96;100.00;101654.97;7389983;19;20424;-51
2022/04/18 06:28:59;;;;;;;15.63;8.03;;;;;;;7.08;100.00;101662.66;7397727;19;20514;-48
2022/04/18 06:31:31;;;;;;;94.27;27.87;;;;;;;7.62;100.00;101674.09;7393897;19;20411;-45
2022/04/18 06:34:00;;;;;;;19.10;8.03;;;;;;;7.75;100.00;101675.81;7399002;19;20394;-48
2022/04/18 06:36:30;;;;;;;13.70;7.37;;;;;;;8.11;100.00;101685.91;7393279;19;20402;-47
2022/04/18 06:39:00;;;;;;;14.93;7.87;;;;;;;8.32;100.00;101704.41;7397537;19;20438;-46
2022/04/18 06:41:29;;;;;;;14.13;7.87;;;;;;;8.03;100.00;101708.53;7394024;19;20407;-50
2022/04/18 06:43:59;;;;;;;14.00;8.20;;;;;;;8.58;100.00;101705.28;7396192;19;20387;-51
2022/04/18 06:46:31;;;;;;;13.40;7.90;;;;;;;8.55;100.00;101719.63;7390508;19;21236;-48
2022/04/18 06:49:00;;;;;;;11.03;7.00;;;;;;;8.50;100.00;101719.28;7396322;19;20411;-50
2022/04/18 06:51:30;;;;;;;13.90;7.53;;;;;;;8.68;100.00;101716.16;7371772;19;20486;-44
2022/04/18 06:53:59;;;;;;;13.40;7.80;;;;;;;8.51;100.00;101719.41;7397535;19;20455;-48
2022/04/18 06:59:11;;;;;;;14.97;8.33;;;;;;;8.94;100.00;101720.44;7400387;19;20419;-45
2022/04/18 07:01:43;;;;;;;13.80;7.30;;;;;;;9.04;100.00;101717.63;7389446;19;20772;-44
2022/04/18 07:04:13;;;;;;;12.17;6.40;;;;;;;9.24;100.00;101724.84;7395051;19;20399;-45
2022/04/18 07:06:43;;;;;;;13.20;7.00;;;;;;;9.38;100.00;101739.47;7355714;19;20395;-45
2022/04/18 07:09:12;;;;;;;13.37;7.20;;;;;;;9.05;100.00;101727.16;7395915;19;20765;-43
2022/04/18 07:11:44;;;;;;;12.40;7.40;;;;;;;8.96;100.00;101731.69;7392412;19;20403;-43
2022/04/18 07:14:14;;;;;;;12.87;7.50;;;;;;;9.23;100.00;101738.50;7398004;19;20456;-45
2022/04/18 07:16:49;;;;;;;14.53;7.40;;;;;;;9.50;100.00;101739.34;7392836;19;20421;-46
2022/04/18 07:19:18;;;;;;;14.40;7.70;;;;;;;9.07;100.00;101739.22;7394559;19;20445;-46
2022/04/18 07:21:48;;;;;;;17.10;7.70;;;;;;;9.07;100.00;101732.38;7389751;19;20423;-44
2022/04/18 07:24:17;;;;;;;15.53;7.73;;;;;;;9.08;100.00;101730.72;7396777;19;20464;-46
2022/04/18 07:26:47;;;;;;;11.60;6.47;;;;;;;9.09;100.00;101729.91;7391765;19;20432;-47
2022/04/18 07:29:17;;;;;;;13.77;8.10;;;;;;;9.07;100.00;101736.66;7395827;19;20423;-44
2022/04/18 07:31:49;;;;;;;13.43;7.73;;;;;;;9.05;100.00;101732.31;7391502;19;20945;-46
2022/04/18 07:34:18;;;;;;;14.50;7.47;;;;;;;9.17;100.00;101739.91;7397246;19;20391;-45
2022/04/18 07:36:48;;;;;;;13.80;7.47;;;;;;;9.22;100.00;101737.59;7375350;19;20419;-45
2022/04/18 07:39:17;;;;;;;14.37;7.43;;;;;;;9.33;100.00;101735.69;7393767;19;20411;-44
2022/04/18 07:41:47;;;;;;;14.20;8.03;;;;;;;9.26;100.00;101737.03;7375413;19;20415;-44
2022/04/18 07:44:17;;;;;;;12.43;7.30;;;;;;;9.18;100.00;101746.81;7396641;19;20376;-46
2022/04/18 07:46:49;;;;;;;11.00;6.83;;;;;;;9.19;100.00;101742.59;7391751;19;20419;-52
2022/04/18 07:49:19;;;;;;;15.20;7.63;;;;;;;9.48;100.00;101743.50;7394518;19;20415;-45
2022/04/18 07:51:49;;;;;;;15.20;8.13;;;;;;;9.59;100.00;101739.91;7375166;19;20419;-47
2022/04/18 07:54:20;;;;;;;12.80;7.73;;;;;;;9.50;100.00;101744.50;7395989;19;20430;-48
2022/04/18 07:56:49;;;;;;;14.90;7.80;;;;;;;9.61;100.00;101746.84;7389270;19;20491;-49
2022/04/18 07:59:19;;;;;;;14.97;7.40;;;;;;;9.73;100.00;101742.44;7393440;19;20420;-48
2022/04/18 08:01:51;;;;;;;11.33;6.63;;;;;;;9.95;100.00;101743.75;7388700;19;20461;-48
2022/04/18 08:04:21;;;;;;;12.80;6.97;;;;;;;10.05;100.00;101737.44;7396864;19;20411;-50
2022/04/18 08:06:50;;;;;;;37.53;17.07;;;;;;;10.16;100.00;101733.81;7387398;19;20494;-46
2022/04/18 08:09:20;;;;;;;14.70;7.57;;;;;;;10.09;100.00;101732.56;7394114;19;20431;-44
2022/04/18 08:11:49;;;;;;;45.53;18.57;;;;;;;10.15;100.00;101733.72;7359590;19;20391;-46
2022/04/18 08:14:19;;;;;;;13.47;7.53;;;;;;;10.32;100.00;101730.47;7394749;19;20392;-48
2022/04/18 08:16:51;;;;;;;10.87;6.70;;;;;;;10.45;100.00;101733.78;7364893;19;20406;-44
2022/04/18 08:19:20;;;;;;;13.63;7.60;;;;;;;10.54;100.00;101736.88;7393549;19;20411;-44
2022/04/18 08:21:50;;;;;;;14.63;6.93;;;;;;;10.74;100.00;101726.78;7355170;19;20424;-46
2022/04/18 08:24:20;;;;;;;11.67;6.97;;;;;;;10.78;100.00;101726.19;7391589;19;20379;-44
2022/04/18 08:26:50;;;;;;;14.43;7.20;;;;;;;10.80;100.00;101740.06;7386556;19;20411;-49
2022/04/18 08:29:21;;;;;;;11.27;6.73;;;;;;;10.97;100.00;101738.41;7391714;19;20407;-47
2022/04/18 08:31:53;;;;;;;13.40;7.20;;;;;;;11.07;100.00;101738.13;7383673;19;20430;-47
2022/04/18 08:34:23;;;;;;;11.83;6.87;;;;;;;11.11;100.00;101736.59;7395802;19;20946;-46
2022/04/18 08:36:53;;;;;;;12.13;7.07;;;;;;;11.19;100.00;101737.91;7385771;19;20419;-46
2022/04/18 08:39:23;;;;;;;14.53;7.90;;;;;;;11.29;100.00;101739.28;7391754;19;20416;-46
2022/04/18 08:41:54;;;;;;;19.53;7.70;;;;;;;11.27;100.00;101734.88;7389213;19;20429;-45
2022/04/18 08:44:24;;;;;;;14.97;7.47;;;;;;;11.31;100.00;101734.22;7393498;19;20391;-46
2022/04/18 08:46:59;;;;;;;13.97;7.90;;;;;;;11.45;100.00;101743.59;7381921;19;20424;-45
2022/04/18 08:54:53;;;;;;;14.37;7.70;;;;;;;11.56;100.00;101730.38;7393320;19;20387;-46
2022/04/18 08:57:26;;;;;;;14.27;8.40;;;;;;;11.71;100.00;101731.19;7384396;19;20400;-45
2022/04/18 08:59:56;;;;;;;13.00;8.40;;;;;;;11.72;100.00;101732.06;7394490;19;20439;-45
2022/04/18 09:02:28;;;;;;;13.90;8.20;;;;;;;11.84;100.00;101722.38;7387123;19;20527;-47
2022/04/18 09:04:58;;;;;;;14.50;8.20;;;;;;;11.92;100.00;101722.78;7393571;19;20400;-49
2022/04/18 09:07:28;;;;;;;13.87;7.80;;;;;;;12.07;98.34;101720.13;7382195;19;20420;-50
2022/04/18 09:09:58;;;;;;;15.60;8.20;;;;;;;11.98;97.09;101724.78;7390612;19;20416;-47
2022/04/18 09:12:31;;;;;;;16.40;8.13;;;;;;;11.90;96.94;101721.81;7386296;19;20940;-44
2022/04/18 09:15:00;;;;;;;17.00;8.07;;;;;;;11.85;95.92;101723.28;7393586;19;20385;-49
2022/04/18 09:17:35;;;;;;;13.80;7.70;;;;;;;12.01;93.94;101720.66;7387168;19;20486;-49
2022/04/18 09:20:10;;;;;;;12.03;7.20;;;;;;;11.89;93.98;101720.03;7391410;19;20401;-49
2022/04/18 09:22:44;;;;;;;11.80;6.40;;;;;;;12.19;94.62;101712.09;7386853;19;20498;-48
2022/04/18 09:25:18;;;;;;;15.23;7.83;;;;;;;12.28;94.37;101709.06;7393398;19;20921;-46
2022/04/18 09:27:55;;;;;;;12.93;6.80;;;;;;;11.92;92.88;101704.69;7389507;19;20500;-48
2022/04/18 09:30:26;;;;;;;13.03;7.90;;;;;;;12.14;95.02;101700.63;7386686;19;20491;-53
2022/04/18 09:33:04;;;;;;;14.80;7.40;;;;;;;12.23;94.47;101702.78;7393258;19;20466;-57
2022/04/18 09:35:33;;;;;;;14.43;8.27;;;;;;;12.37;94.94;101699.16;7387072;19;20405;-44
2022/04/18 09:38:05;;;;;;;14.10;7.80;;;;;;;11.96;93.14;101698.88;7391661;19;20392;-45
2022/04/18 09:40:35;;;;;;;13.30;7.20;;;;;;;11.99;94.75;101691.25;7384025;19;20417;-53
2022/04/18 09:43:05;;;;;;;15.10;6.87;;;;;;;12.37;94.11;101687.94;7391627;19;20395;-45
2022/04/18 09:45:37;;;;;;;12.83;7.13;;;;;;;12.49;92.98;101693.72;7383083;19;20389;-44
2022/04/18 09:48:17;;;;;;;12.70;7.47;;;;;;;12.64;88.89;101691.00;7391991;19;20435;-45
2022/04/18 09:51:02;;;;;;;12.60;7.40;;;;;;;12.34;88.35;101687.78;7386451;19;20416;-46
2022/04/18 09:53:31;;;;;;;11.40;6.60;;;;;;;12.38;90.24;101687.13;7393125;19;20971;-47
2022/04/18 09:56:01;;;;;;;16.80;9.20;;;;;;;12.55;89.35;101673.31;7386513;19;20494;-45
2022/04/18 09:58:33;;;;;;;12.17;7.23;;;;;;;12.82;90.00;101675.44;7392176;19;20388;-44
2022/04/18 10:01:24;;;;;;;10.90;6.07;;;;;;;13.03;88.89;101676.38;7386984;19;20421;-45
2022/04/18 10:03:57;;;;;;;11.77;6.20;;;;;;;13.11;85.61;101669.84;7391422;19;20386;-44
2022/04/18 10:06:26;;;;;;;10.13;5.10;;;;;;;13.18;82.77;101671.88;7386270;19;20428;-45
2022/04/18 10:08:56;;;;;;;13.57;6.23;;;;;;;13.28;85.71;101670.59;7390801;19;20414;-46
2022/04/18 10:11:28;;;;;;;10.23;6.27;;;;;;;13.36;85.75;101671.84;7387462;19;20499;-50
2022/04/18 10:13:58;;;;;;;12.73;6.70;;;;;;;13.37;84.21;101662.34;7391836;19;20400;-44
2022/04/18 10:16:31;;;;;;;12.20;6.37;;;;;;;13.22;83.55;101659.97;7382323;19;20777;-45
2022/04/18 10:19:12;;;;;;;14.80;6.10;;;;;;;13.26;85.01;101650.63;7390031;19;20775;-44
2022/04/18 10:21:43;;;;;;;12.10;6.13;;;;;;;13.38;82.00;101645.97;7370602;19;20821;-45
2022/04/18 10:24:43;;;;;;;9.87;6.13;;;;;;;13.59;84.47;101648.66;7391990;19;20389;-45
2022/04/18 10:27:44;;;;;;;10.03;5.70;;;;;;;13.71;82.67;101647.44;7383297;19;20530;-44
2022/04/18 10:30:14;;;;;;;9.13;5.50;;;;;;;13.55;81.30;101649.38;7389961;19;20405;-47
2022/04/18 10:32:44;;;;;;;9.00;5.77;;;;;;;13.67;81.27;101645.50;7389338;19;20436;-50
2022/04/18 10:35:17;;;;;;;8.73;5.20;;;;;;;13.86;80.86;101648.09;7396030;19;20917;-46
2022/04/18 10:37:46;;;;;;;10.67;5.80;;;;;;;13.74;77.76;101638.06;7389599;19;20423;-44
2022/04/18 10:40:19;;;;;;;9.30;5.00;;;;;;;13.43;79.07;101638.44;7394507;19;20425;-49
2022/04/18 10:42:49;;;;;;;8.70;5.40;;;;;;;13.94;81.68;101629.38;7396708;19;20413;-45
2022/04/18 10:45:24;;;;;;;9.90;5.83;;;;;;;14.14;79.84;101628.50;7399112;19;20368;-47
2022/04/18 10:48:08;;;;;;;10.53;5.57;;;;;;;14.30;80.31;101623.91;7394714;19;20422;-48
2022/04/18 10:50:45;;;;;;;10.93;5.77;;;;;;;14.40;78.75;101630.34;7390478;19;20388;-50
2022/04/18 10:53:18;;;;;;;9.63;5.63;;;;;;;14.36;80.10;101631.06;7398979;19;20387;-48
2022/04/18 10:56:09;;;;;;;10.00;6.20;;;;;;;14.38;77.23;101626.81;7389940;19;20437;-50
2022/04/18 10:58:39;;;;;;;10.30;6.37;;;;;;;14.12;77.96;101611.06;7396546;19;20435;-46
2022/04/18 11:01:10;;;;;;;9.60;5.37;;;;;;;14.34;76.65;101620.63;7391626;19;20423;-50
2022/04/18 11:03:53;;;;;;;9.30;5.70;;;;;;;14.15;74.33;101616.41;7402993;19;20402;-45
2022/04/18 11:06:52;;;;;;;10.17;5.30;;;;;;;14.20;75.75;101616.59;7392480;19;20426;-48
2022/04/18 11:09:24;;;;;;;9.83;4.83;;;;;;;14.27;76.15;101603.94;7395863;19;20419;-47
2022/04/18 11:12:00;;;;;;;10.53;6.20;;;;;;;13.94;75.29;101611.22;7391562;19;20417;-45
2022/04/18 11:14:32;;;;;;;9.30;5.10;;;;;;;14.09;76.11;101598.00;7396680;19;20386;-44
2022/04/18 11:17:03;;;;;;;9.90;4.90;;;;;;;14.50;78.45;101610.84;7387694;19;20426;-44
2022/04/18 11:19:33;;;;;;;9.97;5.20;;;;;;;14.61;72.08;101611.28;7395482;19;20419;-46
2022/04/18 11:22:11;;;;;;;16.20;8.20;;;;;;;14.69;70.90;101608.16;7390639;19;21009;-46
2022/04/18 11:24:42;;;;;;;13.13;6.40;;;;;;;14.66;66.83;101602.81;7397891;19;20402;-44
2022/04/18 11:27:12;;;;;;;12.57;5.60;;;;;;;14.48;63.47;101596.91;7390226;19;20450;-44
2022/04/18 11:29:43;;;;;;;10.10;4.93;;;;;;;14.77;66.83;101597.19;7394591;19;20422;-50
2022/04/18 11:32:17;;;;;;;7.70;3.90;;;;;;;14.87;64.24;101596.69;7390611;19;20430;-45
2022/04/18 11:34:48;;;;;;;9.63;4.17;;;;;;;14.92;63.27;101595.16;7396387;19;20621;-48
2022/04/18 11:37:27;;;;;;;8.03;4.17;;;;;;;15.03;62.72;101592.94;7389593;19;20530;-48
2022/04/18 11:39:58;;;;;;;7.30;3.57;;;;;;;14.90;62.36;101588.13;7394847;19;20415;-45
2022/04/18 11:42:29;;;;;;;8.53;3.97;;;;;;;14.93;62.80;101593.44;7390679;19;20413;-44
2022/04/18 11:45:00;;;;;;;9.00;4.13;;;;;;;15.02;62.27;101585.13;7395439;19;20451;-44
2022/04/18 11:47:31;;;;;;;6.93;3.90;;;;;;;14.77;60.51;101581.59;7385157;19;20455;-45
2022/04/18 11:50:02;;;;;;;7.40;3.70;;;;;;;14.87;62.68;101575.91;7397271;19;20426;-45
2022/04/18 11:52:37;;;;;;;9.10;3.93;;;;;;;15.01;63.48;101572.97;7390324;19;20438;-46
2022/04/18 11:55:09;;;;;;;7.10;3.50;;;;;;;15.02;63.14;101570.38;7395979;19;20381;-46